sensor_id;sensor_type;location;lat;lon;timestamp;P1;durP1;ratioP1;P2;durP2;ratioP2
30247;SDS011;17063;50.892;4.702;2024-03-22T00:01:15;44.43;;;24.00;;
30247;SDS011;17063;50.892;4.702;2024-03-22T00:03:41;50.20;;;25.50;;
30247;SDS011;17063;50.892;4.702;2024-03-22T00:06:08;43.40;;;24.57;;
30247;SDS011;17063;50.892;4.702;2024-03-22T00:08:34;50.73;;;25.70;;
30247;SDS011;17063;50.892;4.702;2024-03-22T00:11:00;53.90;;;26.30;;
30247;SDS011;17063;50.892;4.702;2024-03-22T00:13:26;50.43;;;25.73;;
30247;SDS011;17063;50.892;4.702;2024-03-22T00:15:52;49.13;;;24.97;;
30247;SDS011;17063;50.892;4.702;2024-03-22T00:18:17;49.37;;;24.80;;
30247;SDS011;17063;50.892;4.702;2024-03-22T00:20:43;49.50;;;25.57;;
30247;SDS011;17063;50.892;4.702;2024-03-22T00:23:09;45.57;;;25.10;;
30247;SDS011;17063;50.892;4.702;2024-03-22T00:25:35;43.90;;;24.20;;
30247;SDS011;17063;50.892;4.702;2024-03-22T00:28:01;50.07;;;26.17;;
30247;SDS011;17063;50.892;4.702;2024-03-22T00:30:28;45.77;;;25.30;;
30247;SDS011;17063;50.892;4.702;2024-03-22T00:32:53;49.97;;;25.23;;
30247;SDS011;17063;50.892;4.702;2024-03-22T00:35:20;47.63;;;25.53;;
30247;SDS011;17063;50.892;4.702;2024-03-22T00:37:45;48.30;;;24.47;;
30247;SDS011;17063;50.892;4.702;2024-03-22T00:40:12;49.37;;;25.57;;
30247;SDS011;17063;50.892;4.702;2024-03-22T00:42:38;51.30;;;25.27;;
30247;SDS011;17063;50.892;4.702;2024-03-22T00:45:04;49.57;;;26.17;;
30247;SDS011;17063;50.892;4.702;2024-03-22T00:47:30;48.87;;;26.23;;
30247;SDS011;17063;50.892;4.702;2024-03-22T00:49:55;50.90;;;26.70;;
30247;SDS011;17063;50.892;4.702;2024-03-22T00:52:21;48.30;;;25.03;;
30247;SDS011;17063;50.892;4.702;2024-03-22T00:54:49;50.90;;;25.53;;
30247;SDS011;17063;50.892;4.702;2024-03-22T00:57:15;51.40;;;26.87;;
30247;SDS011;17063;50.892;4.702;2024-03-22T00:59:40;49.73;;;25.97;;
30247;SDS011;17063;50.892;4.702;2024-03-22T01:02:06;53.27;;;25.27;;
30247;SDS011;17063;50.892;4.702;2024-03-22T01:04:32;45.93;;;24.40;;
30247;SDS011;17063;50.892;4.702;2024-03-22T01:06:59;45.70;;;24.77;;
30247;SDS011;17063;50.892;4.702;2024-03-22T01:09:26;46.17;;;25.40;;
30247;SDS011;17063;50.892;4.702;2024-03-22T01:11:51;51.57;;;24.90;;
30247;SDS011;17063;50.892;4.702;2024-03-22T01:14:17;45.37;;;24.23;;
30247;SDS011;17063;50.892;4.702;2024-03-22T01:16:43;45.07;;;24.80;;
30247;SDS011;17063;50.892;4.702;2024-03-22T01:19:10;48.57;;;25.57;;
30247;SDS011;17063;50.892;4.702;2024-03-22T01:21:36;50.80;;;25.17;;
30247;SDS011;17063;50.892;4.702;2024-03-22T01:24:02;49.87;;;24.67;;
30247;SDS011;17063;50.892;4.702;2024-03-22T01:26:27;45.80;;;25.17;;
30247;SDS011;17063;50.892;4.702;2024-03-22T01:28:56;47.13;;;23.90;;
30247;SDS011;17063;50.892;4.702;2024-03-22T01:31:22;46.43;;;24.43;;
30247;SDS011;17063;50.892;4.702;2024-03-22T01:33:48;49.80;;;25.10;;
30247;SDS011;17063;50.892;4.702;2024-03-22T01:36:14;50.93;;;25.77;;
30247;SDS011;17063;50.892;4.702;2024-03-22T01:38:40;50.17;;;25.17;;
30247;SDS011;17063;50.892;4.702;2024-03-22T01:41:05;50.47;;;25.27;;
30247;SDS011;17063;50.892;4.702;2024-03-22T01:43:32;47.50;;;23.87;;
30247;SDS011;17063;50.892;4.702;2024-03-22T01:45:58;45.60;;;24.10;;
30247;SDS011;17063;50.892;4.702;2024-03-22T01:48:24;51.30;;;25.47;;
30247;SDS011;17063;50.892;4.702;2024-03-22T01:50:50;46.10;;;24.53;;
30247;SDS011;17063;50.892;4.702;2024-03-22T01:53:16;47.17;;;23.37;;
30247;SDS011;17063;50.892;4.702;2024-03-22T01:55:43;47.27;;;25.10;;
30247;SDS011;17063;50.892;4.702;2024-03-22T01:58:09;47.70;;;23.83;;
30247;SDS011;17063;50.892;4.702;2024-03-22T02:00:35;46.53;;;24.50;;
30247;SDS011;17063;50.892;4.702;2024-03-22T02:03:01;43.50;;;23.27;;
30247;SDS011;17063;50.892;4.702;2024-03-22T02:05:27;49.57;;;24.70;;
30247;SDS011;17063;50.892;4.702;2024-03-22T02:07:53;44.83;;;24.00;;
30247;SDS011;17063;50.892;4.702;2024-03-22T02:10:19;45.40;;;23.50;;
30247;SDS011;17063;50.892;4.702;2024-03-22T02:12:44;43.00;;;23.67;;
30247;SDS011;17063;50.892;4.702;2024-03-22T02:15:11;38.67;;;21.30;;
30247;SDS011;17063;50.892;4.702;2024-03-22T02:17:36;45.27;;;22.53;;
30247;SDS011;17063;50.892;4.702;2024-03-22T02:20:03;41.80;;;22.67;;
30247;SDS011;17063;50.892;4.702;2024-03-22T02:22:30;44.17;;;22.37;;
30247;SDS011;17063;50.892;4.702;2024-03-22T02:24:56;37.10;;;20.93;;
30247;SDS011;17063;50.892;4.702;2024-03-22T02:27:22;49.97;;;22.33;;
30247;SDS011;17063;50.892;4.702;2024-03-22T02:29:48;45.37;;;22.73;;
30247;SDS011;17063;50.892;4.702;2024-03-22T02:32:14;45.30;;;21.53;;
30247;SDS011;17063;50.892;4.702;2024-03-22T02:34:40;38.57;;;20.73;;
30247;SDS011;17063;50.892;4.702;2024-03-22T02:37:06;38.97;;;20.47;;
30247;SDS011;17063;50.892;4.702;2024-03-22T02:39:32;37.43;;;20.87;;
30247;SDS011;17063;50.892;4.702;2024-03-22T02:41:58;44.10;;;20.23;;
30247;SDS011;17063;50.892;4.702;2024-03-22T02:44:23;37.97;;;20.13;;
30247;SDS011;17063;50.892;4.702;2024-03-22T02:46:49;37.17;;;18.27;;
30247;SDS011;17063;50.892;4.702;2024-03-22T02:49:15;35.77;;;19.13;;
30247;SDS011;17063;50.892;4.702;2024-03-22T02:51:41;37.93;;;18.47;;
30247;SDS011;17063;50.892;4.702;2024-03-22T02:54:07;38.30;;;18.70;;
30247;SDS011;17063;50.892;4.702;2024-03-22T02:56:33;41.77;;;18.87;;
30247;SDS011;17063;50.892;4.702;2024-03-22T02:58:59;36.00;;;17.63;;
30247;SDS011;17063;50.892;4.702;2024-03-22T03:01:25;35.40;;;18.33;;
30247;SDS011;17063;50.892;4.702;2024-03-22T03:03:51;30.30;;;17.40;;
30247;SDS011;17063;50.892;4.702;2024-03-22T03:06:17;35.93;;;18.07;;
30247;SDS011;17063;50.892;4.702;2024-03-22T03:08:45;36.93;;;17.67;;
30247;SDS011;17063;50.892;4.702;2024-03-22T03:11:12;32.93;;;17.97;;
30247;SDS011;17063;50.892;4.702;2024-03-22T03:13:39;35.70;;;17.90;;
30247;SDS011;17063;50.892;4.702;2024-03-22T03:16:05;38.53;;;17.27;;
30247;SDS011;17063;50.892;4.702;2024-03-22T03:18:31;34.97;;;18.30;;
30247;SDS011;17063;50.892;4.702;2024-03-22T03:20:57;32.87;;;16.27;;
30247;SDS011;17063;50.892;4.702;2024-03-22T03:23:23;31.33;;;16.83;;
30247;SDS011;17063;50.892;4.702;2024-03-22T03:25:49;32.50;;;17.33;;
30247;SDS011;17063;50.892;4.702;2024-03-22T03:28:15;31.23;;;17.20;;
30247;SDS011;17063;50.892;4.702;2024-03-22T03:30:41;32.00;;;15.90;;
30247;SDS011;17063;50.892;4.702;2024-03-22T03:33:07;34.50;;;16.93;;
30247;SDS011;17063;50.892;4.702;2024-03-22T03:35:33;32.63;;;16.57;;
30247;SDS011;17063;50.892;4.702;2024-03-22T03:37:59;28.80;;;15.20;;
30247;SDS011;17063;50.892;4.702;2024-03-22T03:40:25;28.00;;;14.03;;
30247;SDS011;17063;50.892;4.702;2024-03-22T03:42:52;25.13;;;14.40;;
30247;SDS011;17063;50.892;4.702;2024-03-22T03:45:18;31.90;;;14.30;;
30247;SDS011;17063;50.892;4.702;2024-03-22T03:47:44;23.47;;;13.33;;
30247;SDS011;17063;50.892;4.702;2024-03-22T03:50:09;28.17;;;14.53;;
30247;SDS011;17063;50.892;4.702;2024-03-22T03:52:35;28.33;;;13.90;;
30247;SDS011;17063;50.892;4.702;2024-03-22T03:55:01;26.40;;;13.73;;
30247;SDS011;17063;50.892;4.702;2024-03-22T03:57:28;23.70;;;12.90;;
30247;SDS011;17063;50.892;4.702;2024-03-22T03:59:54;25.50;;;13.80;;
30247;SDS011;17063;50.892;4.702;2024-03-22T04:02:20;23.50;;;13.40;;
30247;SDS011;17063;50.892;4.702;2024-03-22T04:04:46;20.27;;;13.00;;
30247;SDS011;17063;50.892;4.702;2024-03-22T04:07:12;24.47;;;13.23;;
30247;SDS011;17063;50.892;4.702;2024-03-22T04:09:38;23.37;;;13.00;;
30247;SDS011;17063;50.892;4.702;2024-03-22T04:12:04;24.17;;;13.73;;
30247;SDS011;17063;50.892;4.702;2024-03-22T04:14:30;22.67;;;13.47;;
30247;SDS011;17063;50.892;4.702;2024-03-22T04:16:57;27.43;;;13.03;;
30247;SDS011;17063;50.892;4.702;2024-03-22T04:19:22;22.73;;;13.03;;
30247;SDS011;17063;50.892;4.702;2024-03-22T04:21:49;23.50;;;12.90;;
30247;SDS011;17063;50.892;4.702;2024-03-22T04:24:15;27.23;;;13.50;;
30247;SDS011;17063;50.892;4.702;2024-03-22T04:26:41;23.37;;;12.83;;
30247;SDS011;17063;50.892;4.702;2024-03-22T04:29:07;23.40;;;12.60;;
30247;SDS011;17063;50.892;4.702;2024-03-22T04:31:33;22.80;;;11.90;;
30247;SDS011;17063;50.892;4.702;2024-03-22T04:33:59;22.67;;;12.07;;
30247;SDS011;17063;50.892;4.702;2024-03-22T04:36:25;26.40;;;12.63;;
30247;SDS011;17063;50.892;4.702;2024-03-22T04:38:51;22.03;;;11.23;;
30247;SDS011;17063;50.892;4.702;2024-03-22T04:41:17;22.73;;;12.20;;
30247;SDS011;17063;50.892;4.702;2024-03-22T04:43:42;18.70;;;11.17;;
30247;SDS011;17063;50.892;4.702;2024-03-22T04:46:08;19.33;;;11.67;;
30247;SDS011;17063;50.892;4.702;2024-03-22T04:48:34;24.57;;;12.60;;
30247;SDS011;17063;50.892;4.702;2024-03-22T04:51:00;19.77;;;11.37;;
30247;SDS011;17063;50.892;4.702;2024-03-22T04:53:26;21.90;;;11.93;;
30247;SDS011;17063;50.892;4.702;2024-03-22T04:55:52;19.50;;;11.37;;
30247;SDS011;17063;50.892;4.702;2024-03-22T04:58:18;23.90;;;11.97;;
30247;SDS011;17063;50.892;4.702;2024-03-22T05:00:46;20.83;;;12.00;;
30247;SDS011;17063;50.892;4.702;2024-03-22T05:03:13;18.87;;;10.53;;
30247;SDS011;17063;50.892;4.702;2024-03-22T05:05:40;22.63;;;11.63;;
30247;SDS011;17063;50.892;4.702;2024-03-22T05:08:06;19.03;;;11.30;;
30247;SDS011;17063;50.892;4.702;2024-03-22T05:10:32;19.20;;;10.73;;
30247;SDS011;17063;50.892;4.702;2024-03-22T05:12:59;18.30;;;10.63;;
30247;SDS011;17063;50.892;4.702;2024-03-22T05:15:25;18.97;;;9.93;;
30247;SDS011;17063;50.892;4.702;2024-03-22T05:17:52;18.17;;;10.10;;
30247;SDS011;17063;50.892;4.702;2024-03-22T05:20:18;17.83;;;10.30;;
30247;SDS011;17063;50.892;4.702;2024-03-22T05:22:44;18.57;;;11.07;;
30247;SDS011;17063;50.892;4.702;2024-03-22T05:25:11;15.73;;;8.93;;
30247;SDS011;17063;50.892;4.702;2024-03-22T05:27:38;17.20;;;8.93;;
30247;SDS011;17063;50.892;4.702;2024-03-22T05:30:04;18.93;;;9.40;;
30247;SDS011;17063;50.892;4.702;2024-03-22T05:32:35;17.37;;;8.77;;
30247;SDS011;17063;50.892;4.702;2024-03-22T05:35:01;15.33;;;8.73;;
30247;SDS011;17063;50.892;4.702;2024-03-22T05:37:27;16.00;;;9.17;;
30247;SDS011;17063;50.892;4.702;2024-03-22T05:39:54;16.53;;;8.37;;
30247;SDS011;17063;50.892;4.702;2024-03-22T05:42:20;15.90;;;8.83;;
30247;SDS011;17063;50.892;4.702;2024-03-22T05:44:47;15.17;;;8.27;;
30247;SDS011;17063;50.892;4.702;2024-03-22T05:47:13;15.00;;;8.23;;
30247;SDS011;17063;50.892;4.702;2024-03-22T05:49:39;14.47;;;8.40;;
30247;SDS011;17063;50.892;4.702;2024-03-22T05:52:05;13.10;;;8.20;;
30247;SDS011;17063;50.892;4.702;2024-03-22T05:54:31;16.33;;;8.50;;
30247;SDS011;17063;50.892;4.702;2024-03-22T05:56:57;19.03;;;8.37;;
30247;SDS011;17063;50.892;4.702;2024-03-22T05:59:23;13.63;;;8.27;;
30247;SDS011;17063;50.892;4.702;2024-03-22T06:01:49;15.77;;;7.63;;
30247;SDS011;17063;50.892;4.702;2024-03-22T06:04:15;12.97;;;8.00;;
30247;SDS011;17063;50.892;4.702;2024-03-22T06:06:41;16.63;;;8.63;;
30247;SDS011;17063;50.892;4.702;2024-03-22T06:09:07;18.97;;;8.60;;
30247;SDS011;17063;50.892;4.702;2024-03-22T06:11:37;16.20;;;9.13;;
30247;SDS011;17063;50.892;4.702;2024-03-22T06:14:02;14.67;;;9.03;;
30247;SDS011;17063;50.892;4.702;2024-03-22T06:16:28;13.20;;;8.60;;
30247;SDS011;17063;50.892;4.702;2024-03-22T06:18:54;17.97;;;9.13;;
30247;SDS011;17063;50.892;4.702;2024-03-22T06:21:20;15.53;;;8.83;;
30247;SDS011;17063;50.892;4.702;2024-03-22T06:23:49;17.67;;;8.93;;
30247;SDS011;17063;50.892;4.702;2024-03-22T06:26:15;15.20;;;9.53;;
30247;SDS011;17063;50.892;4.702;2024-03-22T06:28:42;15.57;;;9.53;;
30247;SDS011;17063;50.892;4.702;2024-03-22T06:31:12;16.03;;;9.80;;
30247;SDS011;17063;50.892;4.702;2024-03-22T06:33:38;14.70;;;9.20;;
30247;SDS011;17063;50.892;4.702;2024-03-22T06:36:04;17.70;;;10.03;;
30247;SDS011;17063;50.892;4.702;2024-03-22T06:38:30;18.43;;;9.87;;
30247;SDS011;17063;50.892;4.702;2024-03-22T06:40:55;19.53;;;10.33;;
30247;SDS011;17063;50.892;4.702;2024-03-22T06:43:21;18.07;;;10.20;;
30247;SDS011;17063;50.892;4.702;2024-03-22T06:45:47;21.87;;;10.43;;
30247;SDS011;17063;50.892;4.702;2024-03-22T06:48:13;21.00;;;11.43;;
30247;SDS011;17063;50.892;4.702;2024-03-22T06:50:41;20.50;;;11.63;;
30247;SDS011;17063;50.892;4.702;2024-03-22T06:53:07;17.03;;;10.20;;
30247;SDS011;17063;50.892;4.702;2024-03-22T06:55:33;15.27;;;9.57;;
30247;SDS011;17063;50.892;4.702;2024-03-22T06:57:59;17.83;;;9.97;;
30247;SDS011;17063;50.892;4.702;2024-03-22T07:00:25;15.90;;;9.43;;
30247;SDS011;17063;50.892;4.702;2024-03-22T07:02:51;14.57;;;8.80;;
30247;SDS011;17063;50.892;4.702;2024-03-22T07:05:17;17.33;;;9.53;;
30247;SDS011;17063;50.892;4.702;2024-03-22T07:07:43;13.57;;;8.43;;
30247;SDS011;17063;50.892;4.702;2024-03-22T07:10:09;17.97;;;9.20;;
30247;SDS011;17063;50.892;4.702;2024-03-22T07:12:35;18.13;;;9.47;;
30247;SDS011;17063;50.892;4.702;2024-03-22T07:15:01;17.97;;;10.07;;
30247;SDS011;17063;50.892;4.702;2024-03-22T07:17:28;16.23;;;9.43;;
30247;SDS011;17063;50.892;4.702;2024-03-22T07:19:54;16.60;;;8.90;;
30247;SDS011;17063;50.892;4.702;2024-03-22T07:22:20;19.30;;;9.60;;
30247;SDS011;17063;50.892;4.702;2024-03-22T07:24:46;15.80;;;9.43;;
30247;SDS011;17063;50.892;4.702;2024-03-22T07:27:16;15.57;;;9.00;;
30247;SDS011;17063;50.892;4.702;2024-03-22T07:29:43;20.70;;;9.97;;
30247;SDS011;17063;50.892;4.702;2024-03-22T07:32:09;19.47;;;9.87;;
30247;SDS011;17063;50.892;4.702;2024-03-22T07:34:35;16.83;;;9.80;;
30247;SDS011;17063;50.892;4.702;2024-03-22T07:37:01;16.27;;;9.50;;
30247;SDS011;17063;50.892;4.702;2024-03-22T07:39:27;18.40;;;9.70;;
30247;SDS011;17063;50.892;4.702;2024-03-22T07:41:53;17.77;;;10.00;;
30247;SDS011;17063;50.892;4.702;2024-03-22T07:44:19;17.90;;;9.27;;
30247;SDS011;17063;50.892;4.702;2024-03-22T07:46:50;17.40;;;8.93;;
30247;SDS011;17063;50.892;4.702;2024-03-22T07:49:17;18.73;;;8.87;;
30247;SDS011;17063;50.892;4.702;2024-03-22T07:51:45;18.87;;;9.60;;
30247;SDS011;17063;50.892;4.702;2024-03-22T07:54:12;19.67;;;9.73;;
30247;SDS011;17063;50.892;4.702;2024-03-22T07:56:37;20.07;;;10.43;;
30247;SDS011;17063;50.892;4.702;2024-03-22T07:59:03;18.73;;;9.67;;
30247;SDS011;17063;50.892;4.702;2024-03-22T08:01:30;20.97;;;11.13;;
30247;SDS011;17063;50.892;4.702;2024-03-22T08:03:56;19.70;;;10.33;;
30247;SDS011;17063;50.892;4.702;2024-03-22T08:06:22;19.60;;;10.93;;
30247;SDS011;17063;50.892;4.702;2024-03-22T08:08:48;22.07;;;10.50;;
30247;SDS011;17063;50.892;4.702;2024-03-22T08:11:15;21.20;;;10.60;;
30247;SDS011;17063;50.892;4.702;2024-03-22T08:13:41;25.30;;;11.30;;
30247;SDS011;17063;50.892;4.702;2024-03-22T08:16:07;21.53;;;11.63;;
30247;SDS011;17063;50.892;4.702;2024-03-22T08:18:32;24.20;;;11.83;;
30247;SDS011;17063;50.892;4.702;2024-03-22T08:20:59;20.53;;;10.93;;
30247;SDS011;17063;50.892;4.702;2024-03-22T08:23:24;19.80;;;10.37;;
30247;SDS011;17063;50.892;4.702;2024-03-22T08:25:51;26.37;;;11.77;;
30247;SDS011;17063;50.892;4.702;2024-03-22T08:28:17;20.07;;;11.37;;
30247;SDS011;17063;50.892;4.702;2024-03-22T08:30:43;21.03;;;11.20;;
30247;SDS011;17063;50.892;4.702;2024-03-22T08:33:09;20.63;;;10.43;;
30247;SDS011;17063;50.892;4.702;2024-03-22T08:35:35;22.37;;;10.20;;
30247;SDS011;17063;50.892;4.702;2024-03-22T08:38:01;16.87;;;10.07;;
30247;SDS011;17063;50.892;4.702;2024-03-22T08:40:28;17.70;;;10.17;;
30247;SDS011;17063;50.892;4.702;2024-03-22T08:42:54;16.90;;;9.50;;
30247;SDS011;17063;50.892;4.702;2024-03-22T08:45:20;16.83;;;8.73;;
30247;SDS011;17063;50.892;4.702;2024-03-22T08:47:46;17.17;;;9.13;;
30247;SDS011;17063;50.892;4.702;2024-03-22T08:50:11;15.60;;;8.37;;
30247;SDS011;17063;50.892;4.702;2024-03-22T08:52:37;16.63;;;8.87;;
30247;SDS011;17063;50.892;4.702;2024-03-22T08:55:04;15.70;;;9.37;;
30247;SDS011;17063;50.892;4.702;2024-03-22T08:57:32;19.23;;;10.40;;
30247;SDS011;17063;50.892;4.702;2024-03-22T08:59:59;18.80;;;9.90;;
30247;SDS011;17063;50.892;4.702;2024-03-22T09:02:25;18.90;;;11.27;;
30247;SDS011;17063;50.892;4.702;2024-03-22T09:04:52;18.57;;;10.80;;
30247;SDS011;17063;50.892;4.702;2024-03-22T09:07:19;18.60;;;10.30;;
30247;SDS011;17063;50.892;4.702;2024-03-22T09:09:46;18.23;;;11.03;;
30247;SDS011;17063;50.892;4.702;2024-03-22T09:12:12;21.67;;;11.27;;
30247;SDS011;17063;50.892;4.702;2024-03-22T09:14:38;18.83;;;10.63;;
30247;SDS011;17063;50.892;4.702;2024-03-22T09:17:04;17.60;;;9.83;;
30247;SDS011;17063;50.892;4.702;2024-03-22T09:19:30;21.07;;;11.33;;
30247;SDS011;17063;50.892;4.702;2024-03-22T09:21:55;21.17;;;11.07;;
30247;SDS011;17063;50.892;4.702;2024-03-22T09:24:22;16.93;;;9.97;;
30247;SDS011;17063;50.892;4.702;2024-03-22T09:26:47;21.70;;;10.33;;
30247;SDS011;17063;50.892;4.702;2024-03-22T09:29:13;17.47;;;10.27;;
30247;SDS011;17063;50.892;4.702;2024-03-22T09:31:39;14.67;;;9.47;;
30247;SDS011;17063;50.892;4.702;2024-03-22T09:34:05;16.47;;;9.40;;
30247;SDS011;17063;50.892;4.702;2024-03-22T09:36:31;16.73;;;9.67;;
30247;SDS011;17063;50.892;4.702;2024-03-22T09:39:01;17.70;;;9.60;;
30247;SDS011;17063;50.892;4.702;2024-03-22T09:41:27;18.27;;;9.07;;
30247;SDS011;17063;50.892;4.702;2024-03-22T09:43:54;15.37;;;8.73;;
30247;SDS011;17063;50.892;4.702;2024-03-22T09:46:26;14.40;;;7.93;;
30247;SDS011;17063;50.892;4.702;2024-03-22T09:48:52;15.97;;;9.50;;
30247;SDS011;17063;50.892;4.702;2024-03-22T09:51:22;12.47;;;8.80;;
30247;SDS011;17063;50.892;4.702;2024-03-22T09:53:48;17.63;;;8.37;;
30247;SDS011;17063;50.892;4.702;2024-03-22T09:56:15;14.30;;;8.97;;
30247;SDS011;17063;50.892;4.702;2024-03-22T09:58:44;19.53;;;9.37;;
30247;SDS011;17063;50.892;4.702;2024-03-22T10:01:10;16.40;;;8.77;;
30247;SDS011;17063;50.892;4.702;2024-03-22T10:03:37;15.20;;;8.40;;
30247;SDS011;17063;50.892;4.702;2024-03-22T10:06:05;14.50;;;8.17;;
30247;SDS011;17063;50.892;4.702;2024-03-22T10:08:31;14.07;;;8.43;;
30247;SDS011;17063;50.892;4.702;2024-03-22T10:10:57;17.40;;;8.73;;
30247;SDS011;17063;50.892;4.702;2024-03-22T10:13:27;19.07;;;8.53;;
30247;SDS011;17063;50.892;4.702;2024-03-22T10:15:53;12.33;;;8.07;;
30247;SDS011;17063;50.892;4.702;2024-03-22T10:18:19;14.70;;;8.73;;
30247;SDS011;17063;50.892;4.702;2024-03-22T10:20:46;16.37;;;8.97;;
30247;SDS011;17063;50.892;4.702;2024-03-22T10:23:12;17.10;;;9.03;;
30247;SDS011;17063;50.892;4.702;2024-03-22T10:25:38;14.87;;;8.63;;
30247;SDS011;17063;50.892;4.702;2024-03-22T10:28:04;15.27;;;9.47;;
30247;SDS011;17063;50.892;4.702;2024-03-22T10:30:30;18.30;;;9.83;;
30247;SDS011;17063;50.892;4.702;2024-03-22T10:32:56;17.27;;;9.23;;
30247;SDS011;17063;50.892;4.702;2024-03-22T10:35:23;16.50;;;9.00;;
30247;SDS011;17063;50.892;4.702;2024-03-22T10:37:50;16.33;;;9.10;;
30247;SDS011;17063;50.892;4.702;2024-03-22T10:40:16;14.70;;;9.40;;
30247;SDS011;17063;50.892;4.702;2024-03-22T10:42:42;15.27;;;9.10;;
30247;SDS011;17063;50.892;4.702;2024-03-22T10:45:12;16.87;;;9.63;;
30247;SDS011;17063;50.892;4.702;2024-03-22T10:47:38;17.20;;;9.77;;
30247;SDS011;17063;50.892;4.702;2024-03-22T10:50:06;15.67;;;9.13;;
30247;SDS011;17063;50.892;4.702;2024-03-22T10:52:37;17.40;;;9.07;;
30247;SDS011;17063;50.892;4.702;2024-03-22T10:55:29;17.53;;;8.97;;
30247;SDS011;17063;50.892;4.702;2024-03-22T10:57:57;17.97;;;9.93;;
30247;SDS011;17063;50.892;4.702;2024-03-22T11:00:27;16.03;;;9.47;;
30247;SDS011;17063;50.892;4.702;2024-03-22T11:02:54;18.90;;;10.57;;
30247;SDS011;17063;50.892;4.702;2024-03-22T11:05:20;18.13;;;9.83;;
30247;SDS011;17063;50.892;4.702;2024-03-22T11:07:46;17.47;;;9.53;;
30247;SDS011;17063;50.892;4.702;2024-03-22T11:10:12;17.90;;;9.57;;
30247;SDS011;17063;50.892;4.702;2024-03-22T11:12:39;23.13;;;10.10;;
30247;SDS011;17063;50.892;4.702;2024-03-22T11:15:10;19.17;;;9.90;;
30247;SDS011;17063;50.892;4.702;2024-03-22T11:17:38;16.20;;;9.67;;
30247;SDS011;17063;50.892;4.702;2024-03-22T11:20:04;23.33;;;10.97;;
30247;SDS011;17063;50.892;4.702;2024-03-22T11:22:31;14.40;;;8.87;;
30247;SDS011;17063;50.892;4.702;2024-03-22T11:24:57;15.77;;;9.23;;
30247;SDS011;17063;50.892;4.702;2024-03-22T11:27:23;16.07;;;8.97;;
30247;SDS011;17063;50.892;4.702;2024-03-22T11:29:49;18.57;;;9.17;;
30247;SDS011;17063;50.892;4.702;2024-03-22T11:32:16;13.50;;;8.53;;
30247;SDS011;17063;50.892;4.702;2024-03-22T11:34:43;16.23;;;9.20;;
30247;SDS011;17063;50.892;4.702;2024-03-22T11:37:10;16.03;;;8.97;;
30247;SDS011;17063;50.892;4.702;2024-03-22T11:39:38;16.90;;;8.83;;
30247;SDS011;17063;50.892;4.702;2024-03-22T11:42:05;22.93;;;9.10;;
30247;SDS011;17063;50.892;4.702;2024-03-22T11:44:34;19.20;;;8.80;;
30247;SDS011;17063;50.892;4.702;2024-03-22T11:47:02;17.47;;;10.00;;
30247;SDS011;17063;50.892;4.702;2024-03-22T11:49:29;15.80;;;9.57;;
30247;SDS011;17063;50.892;4.702;2024-03-22T11:51:55;19.37;;;9.40;;
30247;SDS011;17063;50.892;4.702;2024-03-22T11:54:22;16.13;;;9.57;;
30247;SDS011;17063;50.892;4.702;2024-03-22T11:56:51;14.17;;;9.40;;
30247;SDS011;17063;50.892;4.702;2024-03-22T11:59:20;18.17;;;9.33;;
30247;SDS011;17063;50.892;4.702;2024-03-22T12:01:47;14.27;;;9.73;;
30247;SDS011;17063;50.892;4.702;2024-03-22T12:04:13;17.27;;;9.57;;
30247;SDS011;17063;50.892;4.702;2024-03-22T12:06:43;16.37;;;9.40;;
30247;SDS011;17063;50.892;4.702;2024-03-22T12:09:09;19.10;;;9.83;;
30247;SDS011;17063;50.892;4.702;2024-03-22T12:11:38;21.97;;;11.63;;
30247;SDS011;17063;50.892;4.702;2024-03-22T12:14:04;23.80;;;10.67;;
30247;SDS011;17063;50.892;4.702;2024-03-22T12:16:30;15.33;;;10.00;;
30247;SDS011;17063;50.892;4.702;2024-03-22T12:18:57;17.90;;;10.40;;
30247;SDS011;17063;50.892;4.702;2024-03-22T12:21:24;16.97;;;9.60;;
30247;SDS011;17063;50.892;4.702;2024-03-22T12:23:50;16.10;;;9.23;;
30247;SDS011;17063;50.892;4.702;2024-03-22T12:26:16;16.77;;;9.43;;
30247;SDS011;17063;50.892;4.702;2024-03-22T12:28:43;18.47;;;9.93;;
30247;SDS011;17063;50.892;4.702;2024-03-22T12:31:09;15.33;;;9.23;;
30247;SDS011;17063;50.892;4.702;2024-03-22T12:33:37;19.70;;;10.87;;
30247;SDS011;17063;50.892;4.702;2024-03-22T12:36:04;20.93;;;10.77;;
30247;SDS011;17063;50.892;4.702;2024-03-22T12:38:30;19.87;;;10.23;;
30247;SDS011;17063;50.892;4.702;2024-03-22T12:40:56;18.40;;;9.50;;
30247;SDS011;17063;50.892;4.702;2024-03-22T12:43:22;18.10;;;9.80;;
30247;SDS011;17063;50.892;4.702;2024-03-22T12:45:48;15.70;;;8.83;;
30247;SDS011;17063;50.892;4.702;2024-03-22T12:48:14;17.87;;;9.57;;
30247;SDS011;17063;50.892;4.702;2024-03-22T12:50:40;20.03;;;9.27;;
30247;SDS011;17063;50.892;4.702;2024-03-22T12:53:08;18.20;;;10.37;;
30247;SDS011;17063;50.892;4.702;2024-03-22T12:55:34;19.00;;;10.40;;
30247;SDS011;17063;50.892;4.702;2024-03-22T12:57:59;21.50;;;10.60;;
30247;SDS011;17063;50.892;4.702;2024-03-22T13:00:25;17.10;;;9.87;;
30247;SDS011;17063;50.892;4.702;2024-03-22T13:02:51;15.00;;;9.90;;
30247;SDS011;17063;50.892;4.702;2024-03-22T13:05:17;21.07;;;10.60;;
30247;SDS011;17063;50.892;4.702;2024-03-22T13:07:43;19.93;;;10.17;;
30247;SDS011;17063;50.892;4.702;2024-03-22T13:10:09;18.33;;;10.97;;
30247;SDS011;17063;50.892;4.702;2024-03-22T13:12:35;19.37;;;10.20;;
30247;SDS011;17063;50.892;4.702;2024-03-22T13:15:01;19.80;;;10.27;;
30247;SDS011;17063;50.892;4.702;2024-03-22T13:17:27;15.13;;;9.17;;
30247;SDS011;17063;50.892;4.702;2024-03-22T13:19:53;20.43;;;9.77;;
30247;SDS011;17063;50.892;4.702;2024-03-22T13:22:19;20.10;;;9.60;;
30247;SDS011;17063;50.892;4.702;2024-03-22T13:24:46;18.63;;;9.83;;
30247;SDS011;17063;50.892;4.702;2024-03-22T13:27:13;15.53;;;9.63;;
30247;SDS011;17063;50.892;4.702;2024-03-22T13:29:39;15.23;;;9.10;;
30247;SDS011;17063;50.892;4.702;2024-03-22T13:32:05;16.87;;;9.90;;
30247;SDS011;17063;50.892;4.702;2024-03-22T13:34:36;18.77;;;9.90;;
30247;SDS011;17063;50.892;4.702;2024-03-22T13:37:03;19.20;;;9.70;;
30247;SDS011;17063;50.892;4.702;2024-03-22T13:39:29;14.80;;;9.53;;
30247;SDS011;17063;50.892;4.702;2024-03-22T13:41:59;22.67;;;9.97;;
30247;SDS011;17063;50.892;4.702;2024-03-22T13:44:25;19.17;;;9.83;;
30247;SDS011;17063;50.892;4.702;2024-03-22T13:46:51;14.20;;;8.27;;
30247;SDS011;17063;50.892;4.702;2024-03-22T13:49:18;19.00;;;8.77;;
30247;SDS011;17063;50.892;4.702;2024-03-22T13:51:46;20.20;;;9.33;;
30247;SDS011;17063;50.892;4.702;2024-03-22T13:54:13;16.63;;;8.93;;
30247;SDS011;17063;50.892;4.702;2024-03-22T13:56:40;19.03;;;8.43;;
30247;SDS011;17063;50.892;4.702;2024-03-22T13:59:05;19.30;;;8.63;;
30247;SDS011;17063;50.892;4.702;2024-03-22T14:01:34;14.10;;;8.70;;
30247;SDS011;17063;50.892;4.702;2024-03-22T14:04:00;16.73;;;8.13;;
30247;SDS011;17063;50.892;4.702;2024-03-22T14:06:26;18.47;;;8.63;;
30247;SDS011;17063;50.892;4.702;2024-03-22T14:08:52;16.53;;;8.27;;
30247;SDS011;17063;50.892;4.702;2024-03-22T14:11:21;15.30;;;7.97;;
30247;SDS011;17063;50.892;4.702;2024-03-22T14:13:47;17.70;;;8.07;;
30247;SDS011;17063;50.892;4.702;2024-03-22T14:16:13;18.13;;;8.17;;
30247;SDS011;17063;50.892;4.702;2024-03-22T14:18:39;15.03;;;8.70;;
30247;SDS011;17063;50.892;4.702;2024-03-22T14:21:05;14.97;;;8.17;;
30247;SDS011;17063;50.892;4.702;2024-03-22T14:23:32;14.43;;;7.53;;